createdAt,value
2023-02-15T00:01:46.344Z,79.60
2023-02-15T00:11:47.087Z,79.50
2023-02-15T00:21:46.326Z,79.60
2023-02-15T00:31:45.238Z,79.70
2023-02-15T00:41:44.295Z,79.60
2023-02-15T00:51:43.292Z,79.70
2023-02-15T01:01:42.312Z,80.10
2023-02-15T01:11:41.367Z,80.20
2023-02-15T01:21:41.323Z,80.60
2023-02-15T01:31:41.309Z,80.60
2023-02-15T01:41:40.358Z,80.70
2023-02-15T01:51:39.242Z,80.70
2023-02-15T02:01:38.364Z,80.90
2023-02-15T02:11:38.070Z,81.20
2023-02-15T02:21:37.439Z,81.30
2023-02-15T02:31:36.329Z,81.20
2023-02-15T02:41:35.858Z,80.80
2023-02-15T02:51:35.236Z,81.00
2023-02-15T03:01:35.199Z,81.70
2023-02-15T03:11:34.842Z,82.10
2023-02-15T03:21:34.270Z,82.10
2023-02-15T03:31:33.470Z,82.10
2023-02-15T03:41:32.263Z,82.30
2023-02-15T03:51:38.478Z,82.40
2023-02-15T04:01:56.946Z,82.60
2023-02-15T04:11:56.388Z,82.90
2023-02-15T04:22:13.364Z,83.10
2023-02-15T04:32:12.374Z,82.90
2023-02-15T04:42:11.309Z,83.20
2023-02-15T04:52:10.343Z,83.60
2023-02-15T05:02:09.863Z,83.80
2023-02-15T05:12:09.433Z,83.80
2023-02-15T05:22:08.522Z,83.70
2023-02-15T05:32:07.461Z,83.90
2023-02-15T05:42:06.428Z,84.40
2023-02-15T05:52:05.454Z,84.60
2023-02-15T06:02:04.528Z,84.70
2023-02-15T06:12:03.340Z,85.10
2023-02-15T06:22:02.506Z,85.60
2023-02-15T06:32:01.570Z,85.40
2023-02-15T06:42:00.386Z,85.20
2023-02-15T06:51:59.427Z,85.00
2023-02-15T07:01:59.404Z,84.80
2023-02-15T07:12:16.784Z,85.00
2023-02-15T07:22:15.512Z,85.20
2023-02-15T07:32:14.566Z,85.50
2023-02-15T07:42:13.429Z,85.40
2023-02-15T07:52:12.465Z,85.80
2023-02-15T08:02:11.521Z,85.90
2023-02-15T08:12:10.548Z,86.00
2023-02-15T08:22:10.786Z,86.10
2023-02-15T08:32:09.766Z,85.90
2023-02-15T08:42:08.527Z,86.00
2023-02-15T08:52:07.552Z,85.70
2023-02-15T09:02:06.477Z,85.10
2023-02-15T09:12:05.438Z,84.50
2023-02-15T09:22:04.483Z,83.40
2023-02-15T09:32:03.983Z,82.60
2023-02-15T09:42:02.704Z,82.50
2023-02-15T09:52:01.645Z,82.00
2023-02-15T10:02:00.576Z,82.10
2023-02-15T10:11:59.625Z,80.40
2023-02-15T10:21:58.566Z,79.90
2023-02-15T10:31:57.694Z,79.30
2023-02-15T10:41:56.700Z,78.80
2023-02-15T10:51:55.462Z,77.80
2023-02-15T11:01:54.658Z,76.50
2023-02-15T11:11:53.899Z,75.90
2023-02-15T11:21:53.137Z,75.10
2023-02-15T11:31:52.771Z,73.90
2023-02-15T11:41:52.629Z,72.80
2023-02-15T11:51:51.639Z,73.30
2023-02-15T12:01:51.946Z,73.10
2023-02-15T12:11:50.486Z,73.10
2023-02-15T12:21:49.518Z,71.90
2023-02-15T12:31:48.571Z,71.40
2023-02-15T12:41:47.518Z,71.40
2023-02-15T12:51:46.539Z,70.70
2023-02-15T13:01:46.563Z,70.10
2023-02-15T13:11:45.452Z,69.80
2023-02-15T13:21:44.537Z,69.50
2023-02-15T13:31:43.953Z,69.40
2023-02-15T13:41:42.548Z,68.60
2023-02-15T13:51:41.606Z,68.20
2023-02-15T14:01:40.672Z,66.60
2023-02-15T14:11:39.573Z,66.30
2023-02-15T14:21:38.533Z,67.00
2023-02-15T14:31:37.870Z,65.00
2023-02-15T14:41:36.623Z,65.10
2023-02-15T14:51:35.592Z,64.10
2023-02-15T15:01:34.647Z,64.70
2023-02-15T15:11:42.990Z,64.20
2023-02-15T15:21:34.594Z,64.00
2023-02-15T15:31:33.739Z,63.70
2023-02-15T15:41:32.655Z,63.60
2023-02-15T15:51:31.951Z,64.20
2023-02-15T16:01:30.692Z,63.90
2023-02-15T16:11:29.649Z,64.20
2023-02-15T16:21:28.633Z,64.60
2023-02-15T16:31:27.754Z,64.90
2023-02-15T16:41:27.679Z,65.20
2023-02-15T16:51:28.557Z,65.50
2023-02-15T17:01:27.761Z,65.80
2023-02-15T17:11:26.659Z,66.10
2023-02-15T17:21:25.589Z,66.60
2023-02-15T17:31:24.769Z,66.90
2023-02-15T17:41:23.766Z,67.80
2023-02-15T17:51:22.826Z,67.90
2023-02-15T18:01:39.935Z,68.20
2023-02-15T18:11:38.828Z,68.30
2023-02-15T18:21:37.685Z,68.60
2023-02-15T18:31:37.052Z,68.90
2023-02-15T18:41:35.606Z,69.00
2023-02-15T18:51:37.067Z,69.40
2023-02-15T19:01:35.871Z,70.80
2023-02-15T19:11:34.758Z,71.20
2023-02-15T19:21:33.894Z,71.80
2023-02-15T19:31:35.112Z,72.70
2023-02-15T19:41:34.194Z,72.90
2023-02-15T19:51:33.671Z,73.10
2023-02-15T20:01:32.967Z,73.30
2023-02-15T20:11:31.909Z,73.80
2023-02-15T20:21:30.758Z,74.10
2023-02-15T20:31:29.989Z,74.10
2023-02-15T20:41:39.467Z,74.30
2023-02-15T20:51:40.314Z,74.60
2023-02-15T21:01:39.990Z,74.70
2023-02-15T21:11:40.267Z,74.70
2023-02-15T21:21:38.849Z,74.80
2023-02-15T21:31:41.064Z,75.10
2023-02-15T21:41:58.115Z,75.30
2023-02-15T21:52:11.810Z,75.50
2023-02-15T22:02:10.811Z,75.60
2023-02-15T22:12:09.789Z,75.90
2023-02-15T22:22:09.765Z,76.00
2023-02-15T22:32:09.054Z,76.10
2023-02-15T22:42:07.877Z,76.80
2023-02-15T22:52:06.983Z,76.90
2023-02-15T23:02:07.157Z,77.20
2023-02-15T23:12:06.108Z,77.40
2023-02-15T23:22:04.883Z,77.70
2023-02-15T23:32:04.021Z,77.60
2023-02-15T23:42:02.893Z,77.70
2023-02-15T23:52:01.843Z,77.30
